createdAt,value
2023-03-22T00:00:18.879Z,76.43
2023-03-22T00:01:21.531Z,74.93
2023-03-22T00:02:23.416Z,74.91
2023-03-22T00:03:25.146Z,75.66
2023-03-22T00:04:26.983Z,72.77
2023-03-22T00:05:28.778Z,73.06
2023-03-22T00:06:30.589Z,70.70
2023-03-22T00:07:32.379Z,64.69
2023-03-22T00:08:34.180Z,70.37
2023-03-22T00:09:36.028Z,66.29
2023-03-22T00:10:38.238Z,66.13
2023-03-22T00:11:40.244Z,64.27
2023-03-22T00:12:42.061Z,60.21
2023-03-22T00:13:43.846Z,65.59
2023-03-22T00:14:45.674Z,67.33
2023-03-22T00:15:47.487Z,66.76
2023-03-22T00:16:49.467Z,60.75
2023-03-22T00:17:51.284Z,62.31
2023-03-22T00:18:53.101Z,62.43
2023-03-22T00:19:54.986Z,65.08
2023-03-22T00:20:56.798Z,61.75
2023-03-22T00:21:58.604Z,65.66
2023-03-22T00:23:00.418Z,70.61
2023-03-22T00:24:02.219Z,76.02
2023-03-22T00:25:04.051Z,74.58
2023-03-22T00:26:06.271Z,77.17
2023-03-22T00:27:08.069Z,86.52
2023-03-22T00:28:09.866Z,90.11
2023-03-22T00:29:11.674Z,95.96
2023-03-22T00:30:13.529Z,91.78
2023-03-22T00:31:15.349Z,88.04
2023-03-22T00:32:17.145Z,86.44
2023-03-22T00:33:18.954Z,80.13
2023-03-22T00:34:20.753Z,76.15
2023-03-22T00:35:22.625Z,77.77
2023-03-22T00:36:24.420Z,72.90
2023-03-22T00:37:26.207Z,80.64
2023-03-22T00:38:41.414Z,74.66
2023-03-22T00:39:31.649Z,70.52
2023-03-22T00:40:33.500Z,67.64
2023-03-22T00:41:35.286Z,71.09
2023-03-22T00:42:37.092Z,68.59
2023-03-22T00:43:38.890Z,68.30
2023-03-22T00:44:40.713Z,71.09
2023-03-22T00:45:42.471Z,69.83
2023-03-22T00:46:44.261Z,68.42
2023-03-22T00:47:46.146Z,65.67
2023-03-22T00:48:48.115Z,68.19
2023-03-22T00:49:49.920Z,68.18
2023-03-22T00:50:51.740Z,66.75
2023-03-22T00:51:53.529Z,68.55
2023-03-22T00:52:55.340Z,67.99
2023-03-22T00:53:57.167Z,65.35
2023-03-22T00:54:58.966Z,63.07
2023-03-22T00:56:00.815Z,64.54
2023-03-22T00:57:02.609Z,66.79
2023-03-22T00:58:04.409Z,65.73
2023-03-22T00:59:06.217Z,66.21
2023-03-22T01:00:08.116Z,65.55
2023-03-22T01:01:10.069Z,67.65
2023-03-22T01:02:11.810Z,68.53
2023-03-22T01:03:13.665Z,72.60
2023-03-22T01:04:15.452Z,63.72
2023-03-22T01:05:17.119Z,65.82
2023-03-22T01:06:19.022Z,70.04
2023-03-22T01:07:20.814Z,62.91
2023-03-22T01:08:22.720Z,63.07
2023-03-22T01:09:24.527Z,61.76
2023-03-22T01:10:26.318Z,58.16
2023-03-22T01:11:28.169Z,60.43
2023-03-22T01:12:29.967Z,68.27
2023-03-22T01:13:31.780Z,67.44
2023-03-22T01:14:33.570Z,71.18
2023-03-22T01:15:35.379Z,74.51
2023-03-22T01:16:37.264Z,69.45
2023-03-22T01:17:39.133Z,74.81
2023-03-22T01:18:40.925Z,70.06
2023-03-22T01:19:42.721Z,65.26
2023-03-22T01:20:44.528Z,72.69
2023-03-22T01:21:46.379Z,73.95
2023-03-22T01:22:48.175Z,77.20
2023-03-22T01:23:49.970Z,73.26
2023-03-22T01:24:51.773Z,74.68
2023-03-22T01:25:53.565Z,69.10
2023-03-22T01:26:55.414Z,65.90
2023-03-22T01:27:57.233Z,65.60
2023-03-22T01:28:59.026Z,66.79
2023-03-22T01:30:00.830Z,63.76
2023-03-22T01:31:02.789Z,65.63
2023-03-22T01:32:04.704Z,73.87
2023-03-22T01:33:06.504Z,75.54
2023-03-22T01:34:08.299Z,75.02
2023-03-22T01:35:10.119Z,69.48
2023-03-22T01:36:12.370Z,68.63
2023-03-22T01:37:14.179Z,63.39
2023-03-22T01:38:15.982Z,62.28
2023-03-22T01:39:17.681Z,64.91
2023-03-22T01:40:19.493Z,74.74
2023-03-22T01:41:21.284Z,64.53
2023-03-22T01:42:23.111Z,66.31
2023-03-22T01:43:24.937Z,63.45
2023-03-22T01:44:26.737Z,62.97
2023-03-22T01:45:28.539Z,58.72
2023-03-22T01:46:30.476Z,63.13
2023-03-22T01:47:32.373Z,52.73
2023-03-22T01:48:34.222Z,61.51
2023-03-22T01:49:35.991Z,58.83
2023-03-22T01:50:37.980Z,56.43
2023-03-22T01:51:40.450Z,56.55
2023-03-22T01:52:43.474Z,57.50
2023-03-22T01:53:45.269Z,55.74
2023-03-22T01:54:47.069Z,53.79
2023-03-22T01:55:48.866Z,57.17
2023-03-22T01:56:50.679Z,57.59
2023-03-22T01:57:52.535Z,56.29
2023-03-22T01:58:54.324Z,57.30
2023-03-22T01:59:56.122Z,56.10
2023-03-22T02:00:57.920Z,58.60
2023-03-22T02:01:59.740Z,59.01
2023-03-22T02:03:01.637Z,57.36
2023-03-22T02:04:03.553Z,60.11
2023-03-22T02:05:05.356Z,58.06
2023-03-22T02:06:07.459Z,56.41
2023-03-22T02:07:09.269Z,59.14
2023-03-22T02:08:11.113Z,60.29
2023-03-22T02:09:12.936Z,57.30
2023-03-22T02:10:14.857Z,61.58
2023-03-22T02:11:16.652Z,55.07
2023-03-22T02:12:18.453Z,57.64
2023-03-22T02:13:20.302Z,54.97
2023-03-22T02:14:23.433Z,57.44
2023-03-22T02:15:25.459Z,55.57
2023-03-22T02:16:27.280Z,56.44
2023-03-22T02:17:29.086Z,57.28
2023-03-22T02:18:30.932Z,59.51
2023-03-22T02:19:32.741Z,57.36
2023-03-22T02:20:34.652Z,56.14
2023-03-22T02:21:36.463Z,57.61
2023-03-22T02:22:38.292Z,57.66
2023-03-22T02:23:40.136Z,59.37
2023-03-22T02:24:43.933Z,59.53
2023-03-22T02:25:45.460Z,57.57
2023-03-22T02:26:47.394Z,61.95
2023-03-22T02:27:49.175Z,62.16
2023-03-22T02:28:51.030Z,57.19
2023-03-22T02:29:52.833Z,60.70
2023-03-22T02:30:54.676Z,70.22
2023-03-22T02:31:56.456Z,99.60
2023-03-22T02:32:58.254Z,176.48
2023-03-22T02:34:00.104Z,210.49
2023-03-22T02:35:01.927Z,146.61
2023-03-22T02:36:03.729Z,109.75
2023-03-22T02:37:05.561Z,84.37
2023-03-22T02:38:07.370Z,86.17
2023-03-22T02:39:09.205Z,75.49
2023-03-22T02:40:11.523Z,67.50
2023-03-22T02:41:13.328Z,60.99
2023-03-22T02:42:15.131Z,60.53
2023-03-22T02:43:16.939Z,65.91
2023-03-22T02:44:18.763Z,62.78
2023-03-22T02:45:20.610Z,57.22
2023-03-22T02:46:22.511Z,57.49
2023-03-22T02:47:24.295Z,58.71
2023-03-22T02:48:26.197Z,68.71
2023-03-22T02:49:28.066Z,69.93
2023-03-22T02:50:29.867Z,74.91
2023-03-22T02:51:31.680Z,68.89
2023-03-22T02:52:33.499Z,68.46
2023-03-22T02:53:35.299Z,62.33
2023-03-22T02:54:37.132Z,64.40
2023-03-22T02:55:38.962Z,60.98
2023-03-22T02:56:40.787Z,59.34
2023-03-22T02:57:42.610Z,61.22
2023-03-22T02:58:44.411Z,101.98
2023-03-22T02:59:46.262Z,103.41
2023-03-22T03:00:48.086Z,93.40
2023-03-22T03:01:49.983Z,87.49
2023-03-22T03:02:51.801Z,81.31
2023-03-22T03:03:53.614Z,79.94
2023-03-22T03:04:55.468Z,64.41
2023-03-22T03:05:57.275Z,58.99
2023-03-22T03:06:59.084Z,55.69
2023-03-22T03:08:00.886Z,65.25
2023-03-22T03:09:02.725Z,86.56
2023-03-22T03:10:04.545Z,91.71
2023-03-22T03:11:06.360Z,116.56
2023-03-22T03:12:08.160Z,123.31
2023-03-22T03:13:09.969Z,95.71
2023-03-22T03:14:11.983Z,68.60
2023-03-22T03:15:13.837Z,60.08
2023-03-22T03:16:15.946Z,59.01
2023-03-22T03:17:17.735Z,57.50
2023-03-22T03:18:19.575Z,55.80
2023-03-22T03:19:21.387Z,58.06
2023-03-22T03:20:23.532Z,60.81
2023-03-22T03:21:25.802Z,63.33
2023-03-22T03:22:27.636Z,62.85
2023-03-22T03:23:29.451Z,81.95
2023-03-22T03:24:31.265Z,89.58
2023-03-22T03:25:33.150Z,98.56
2023-03-22T03:26:34.974Z,81.39
2023-03-22T03:27:36.857Z,78.92
2023-03-22T03:28:38.666Z,64.73
2023-03-22T03:29:40.475Z,56.87
2023-03-22T03:30:42.315Z,60.23
2023-03-22T03:31:44.199Z,58.11
2023-03-22T03:32:46.044Z,54.35
2023-03-22T03:33:47.829Z,50.19
2023-03-22T03:34:49.726Z,52.51
2023-03-22T03:35:51.610Z,52.55
2023-03-22T03:36:53.429Z,52.50
2023-03-22T03:37:55.223Z,51.83
2023-03-22T03:38:57.036Z,52.25
2023-03-22T03:39:58.830Z,53.72
2023-03-22T03:41:00.679Z,55.05
2023-03-22T03:42:02.504Z,51.00
2023-03-22T03:43:04.296Z,54.93
2023-03-22T03:44:06.096Z,54.35
2023-03-22T03:45:07.900Z,59.45
2023-03-22T03:46:09.905Z,49.65
2023-03-22T03:47:11.651Z,55.91
2023-03-22T03:48:13.510Z,50.45
2023-03-22T03:49:15.423Z,52.05
2023-03-22T03:50:17.662Z,49.58
2023-03-22T03:51:19.492Z,50.63
2023-03-22T03:52:21.305Z,59.53
2023-03-22T03:53:23.170Z,58.51
2023-03-22T03:54:24.991Z,54.41
2023-03-22T03:55:26.783Z,61.57
2023-03-22T03:56:28.748Z,68.93
2023-03-22T03:57:30.557Z,59.84
2023-03-22T03:58:32.479Z,59.71
2023-03-22T03:59:34.265Z,57.23
2023-03-22T04:00:36.079Z,58.27
2023-03-22T04:01:37.939Z,59.59
2023-03-22T04:02:39.838Z,57.74
2023-03-22T04:03:41.659Z,50.51
2023-03-22T04:04:43.511Z,55.23
2023-03-22T04:05:45.290Z,52.74
2023-03-22T04:06:47.241Z,59.47
2023-03-22T04:07:49.046Z,65.65
2023-03-22T04:08:50.867Z,61.93
2023-03-22T04:09:52.690Z,60.59
2023-03-22T04:10:54.589Z,58.55
2023-03-22T04:11:56.438Z,57.93
2023-03-22T04:12:58.245Z,63.25
2023-03-22T04:14:00.078Z,59.49
2023-03-22T04:15:01.873Z,60.80
2023-03-22T04:16:03.677Z,61.46
2023-03-22T04:17:05.505Z,71.04
2023-03-22T04:18:07.315Z,65.69
2023-03-22T04:19:09.112Z,65.94
2023-03-22T04:20:11.737Z,71.59
2023-03-22T04:21:13.521Z,59.29
2023-03-22T04:22:15.352Z,59.55
2023-03-22T04:23:17.186Z,68.07
2023-03-22T04:24:18.979Z,63.23
2023-03-22T04:25:21.773Z,63.83
2023-03-22T04:26:26.177Z,65.66
2023-03-22T04:27:27.228Z,63.82
2023-03-22T04:28:29.024Z,61.23
2023-03-22T04:29:30.832Z,60.58
2023-03-22T04:30:32.625Z,60.57
2023-03-22T04:31:34.429Z,57.88
2023-03-22T04:32:36.266Z,58.23
2023-03-22T04:33:38.097Z,58.55
2023-03-22T04:34:39.903Z,54.87
2023-03-22T04:35:41.724Z,51.56
2023-03-22T04:36:43.506Z,64.30
2023-03-22T04:37:45.354Z,59.86
2023-03-22T04:38:47.159Z,69.83
2023-03-22T04:39:48.952Z,82.49
2023-03-22T04:40:50.855Z,122.19
2023-03-22T04:41:52.660Z,199.01
2023-03-22T04:42:54.552Z,266.30
2023-03-22T04:43:56.362Z,252.71
2023-03-22T04:44:58.155Z,176.21
2023-03-22T04:46:00.004Z,150.91
2023-03-22T04:47:01.793Z,119.60
2023-03-22T04:48:03.673Z,103.23
2023-03-22T04:49:05.431Z,85.56
2023-03-22T04:50:07.648Z,81.27
2023-03-22T04:51:09.450Z,76.57
2023-03-22T04:52:11.241Z,74.89
2023-03-22T04:53:13.071Z,63.38
2023-03-22T04:54:14.884Z,61.91
2023-03-22T04:55:16.703Z,65.41
2023-03-22T04:56:18.502Z,54.01
2023-03-22T04:57:20.306Z,54.92
2023-03-22T04:58:22.169Z,56.19
2023-03-22T04:59:23.938Z,57.83
2023-03-22T05:00:25.745Z,64.07
2023-03-22T05:01:27.621Z,61.43
2023-03-22T05:02:29.461Z,58.86
2023-03-22T05:03:31.289Z,57.89
2023-03-22T05:04:32.990Z,54.11
2023-03-22T05:05:34.816Z,55.64
2023-03-22T05:06:36.602Z,61.53
2023-03-22T05:07:38.395Z,55.30
2023-03-22T05:08:40.230Z,63.23
2023-03-22T05:09:42.056Z,59.47
2023-03-22T05:10:43.858Z,64.53
2023-03-22T05:11:45.684Z,60.34
2023-03-22T05:12:47.486Z,58.26
2023-03-22T05:13:49.324Z,61.16
2023-03-22T05:14:51.164Z,60.24
2023-03-22T05:15:52.994Z,63.34
2023-03-22T05:16:54.847Z,68.36
2023-03-22T05:17:56.633Z,60.05
2023-03-22T05:18:58.475Z,61.27
2023-03-22T05:20:00.281Z,61.03
2023-03-22T05:21:02.094Z,65.37
2023-03-22T05:22:03.880Z,61.63
2023-03-22T05:23:05.576Z,65.47
2023-03-22T05:24:07.415Z,65.72
2023-03-22T05:25:09.222Z,70.87
2023-03-22T05:26:11.342Z,72.55
2023-03-22T05:27:13.130Z,76.99
2023-03-22T05:28:14.928Z,79.06
2023-03-22T05:29:16.785Z,71.82
2023-03-22T05:30:18.703Z,77.92
2023-03-22T05:31:20.546Z,69.57
2023-03-22T05:32:22.298Z,72.42
2023-03-22T05:33:24.130Z,66.01
2023-03-22T05:34:25.959Z,65.75
2023-03-22T05:35:27.761Z,69.67
2023-03-22T05:36:29.562Z,71.45
2023-03-22T05:37:31.358Z,59.52
2023-03-22T05:38:33.176Z,57.11
2023-03-22T05:39:35.021Z,55.71
2023-03-22T05:40:36.833Z,55.68
2023-03-22T05:41:38.628Z,56.34
2023-03-22T05:42:40.431Z,54.24
2023-03-22T05:43:42.243Z,50.65
2023-03-22T05:44:44.097Z,55.19
2023-03-22T05:45:46.014Z,65.15
2023-03-22T05:46:47.835Z,57.97
2023-03-22T05:47:51.546Z,47.29
2023-03-22T05:48:53.208Z,41.42
2023-03-22T05:49:55.056Z,41.81
2023-03-22T05:50:57.172Z,46.09
2023-03-22T05:51:58.975Z,43.97
2023-03-22T05:53:00.797Z,45.15
2023-03-22T05:54:02.618Z,45.65
2023-03-22T05:55:04.483Z,45.89
2023-03-22T05:56:06.608Z,42.25
2023-03-22T05:57:08.419Z,42.29
2023-03-22T05:58:10.211Z,37.93
2023-03-22T05:59:12.017Z,37.65
2023-03-22T06:00:13.859Z,44.31
2023-03-22T06:01:15.680Z,38.97
2023-03-22T06:02:17.564Z,45.64
2023-03-22T06:03:19.406Z,42.23
2023-03-22T06:04:21.193Z,45.17
2023-03-22T06:05:23.335Z,44.56
2023-03-22T06:06:25.162Z,45.77
2023-03-22T06:07:26.961Z,46.81
2023-03-22T06:08:28.772Z,47.19
2023-03-22T06:09:30.590Z,44.24
2023-03-22T06:10:32.622Z,49.82
2023-03-22T06:11:34.430Z,50.19
2023-03-22T06:12:36.236Z,44.35
2023-03-22T06:13:38.052Z,47.35
2023-03-22T06:14:39.839Z,53.18
2023-03-22T06:15:41.682Z,56.17
2023-03-22T06:16:43.499Z,52.05
2023-03-22T06:17:45.289Z,52.91
2023-03-22T06:18:47.102Z,54.09
2023-03-22T06:19:48.893Z,53.45
2023-03-22T06:20:51.047Z,48.28
2023-03-22T06:21:52.908Z,51.93
2023-03-22T06:22:54.738Z,50.51
2023-03-22T06:23:56.539Z,49.45
2023-03-22T06:24:58.360Z,48.74
2023-03-22T06:26:00.260Z,52.23
2023-03-22T06:27:02.079Z,48.46
2023-03-22T06:28:03.885Z,47.92
2023-03-22T06:29:05.685Z,53.84
2023-03-22T06:30:07.797Z,52.32
2023-03-22T06:31:09.688Z,53.05
2023-03-22T06:32:11.545Z,55.86
2023-03-22T06:33:13.349Z,52.46
2023-03-22T06:34:15.212Z,55.21
2023-03-22T06:35:17.065Z,57.16
2023-03-22T06:36:19.049Z,59.81
2023-03-22T06:37:20.867Z,52.99
2023-03-22T06:38:22.660Z,55.51
2023-03-22T06:39:24.469Z,53.83
2023-03-22T06:40:26.297Z,49.59
2023-03-22T06:41:28.247Z,48.29
2023-03-22T06:42:30.062Z,50.21
2023-03-22T06:43:31.757Z,49.03
2023-03-22T06:44:33.637Z,49.32
2023-03-22T06:45:35.423Z,46.80
2023-03-22T06:46:37.421Z,45.74
2023-03-22T06:47:39.237Z,57.99
2023-03-22T06:48:41.033Z,52.73
2023-03-22T06:49:42.868Z,50.59
2023-03-22T06:50:44.862Z,51.67
2023-03-22T06:51:46.931Z,56.91
2023-03-22T06:52:48.728Z,179.58
2023-03-22T06:53:50.572Z,76.31
2023-03-22T06:54:52.381Z,57.06
2023-03-22T06:55:55.430Z,52.16
2023-03-22T06:56:57.556Z,54.52
2023-03-22T06:57:59.385Z,50.31
2023-03-22T06:59:01.190Z,55.26
2023-03-22T07:00:03.091Z,53.57
2023-03-22T07:01:04.932Z,50.22
2023-03-22T07:02:06.811Z,49.61
2023-03-22T07:03:08.644Z,58.53
2023-03-22T07:04:10.500Z,56.98
2023-03-22T07:05:12.271Z,55.09
2023-03-22T07:06:14.186Z,60.05
2023-03-22T07:07:16.022Z,63.83
2023-03-22T07:08:17.852Z,67.81
2023-03-22T07:09:19.693Z,69.36
2023-03-22T07:10:21.556Z,66.71
2023-03-22T07:11:23.401Z,65.08
2023-03-22T07:12:25.259Z,68.78
2023-03-22T07:13:27.388Z,72.91
2023-03-22T07:14:29.816Z,70.86
2023-03-22T07:15:32.155Z,75.87
2023-03-22T07:16:34.059Z,76.06
2023-03-22T07:17:35.878Z,70.47
2023-03-22T07:18:37.829Z,76.47
2023-03-22T07:19:39.665Z,76.47
2023-03-22T07:20:41.901Z,73.19
2023-03-22T07:21:43.813Z,74.39
2023-03-22T07:22:45.665Z,78.79
2023-03-22T07:23:47.481Z,74.36
2023-03-22T07:24:56.512Z,77.17
2023-03-22T07:25:52.905Z,75.08
2023-03-22T07:26:54.817Z,80.81
2023-03-22T07:27:56.667Z,77.26
2023-03-22T07:28:58.477Z,69.67
2023-03-22T07:30:00.296Z,65.76
2023-03-22T07:31:02.104Z,68.59
2023-03-22T07:32:04.030Z,68.20
2023-03-22T07:33:05.892Z,70.71
2023-03-22T07:34:07.756Z,76.35
2023-03-22T07:35:09.570Z,77.13
2023-03-22T07:36:11.536Z,72.54
2023-03-22T07:37:13.322Z,71.77
2023-03-22T07:38:16.337Z,71.17
2023-03-22T07:39:18.132Z,72.26
2023-03-22T07:40:20.006Z,70.54
2023-03-22T07:41:21.816Z,67.32
2023-03-22T07:42:23.738Z,66.10
2023-03-22T07:43:25.568Z,62.87
2023-03-22T07:44:27.373Z,63.22
2023-03-22T07:45:29.218Z,69.39
2023-03-22T07:46:31.112Z,71.21
2023-03-22T07:47:40.687Z,69.25
2023-03-22T07:48:36.543Z,69.85
2023-03-22T07:49:38.341Z,65.37
2023-03-22T07:50:40.644Z,66.41
2023-03-22T07:51:42.815Z,61.14
2023-03-22T07:52:44.609Z,58.47
2023-03-22T07:53:46.448Z,53.55
2023-03-22T07:54:48.235Z,51.93
2023-03-22T07:55:50.045Z,47.74
2023-03-22T07:56:51.851Z,38.15
2023-03-22T07:57:53.709Z,46.64
2023-03-22T07:58:55.581Z,41.61
2023-03-22T07:59:57.483Z,44.45
2023-03-22T08:00:59.365Z,44.51
2023-03-22T08:02:01.416Z,35.64
2023-03-22T08:03:03.358Z,38.78
2023-03-22T08:04:05.330Z,31.21
2023-03-22T08:05:07.104Z,26.95
2023-03-22T08:06:09.819Z,27.71
2023-03-22T08:07:11.624Z,31.90
2023-03-22T08:08:13.436Z,38.27
2023-03-22T08:09:15.267Z,43.25
2023-03-22T08:10:17.199Z,46.76
2023-03-22T08:11:18.996Z,40.09
2023-03-22T08:12:20.798Z,40.41
2023-03-22T08:13:22.626Z,40.84
2023-03-22T08:14:34.056Z,36.72
2023-03-22T08:15:28.135Z,33.24
2023-03-22T08:16:30.016Z,31.83
2023-03-22T08:17:31.862Z,30.93
2023-03-22T08:18:33.701Z,30.91
2023-03-22T08:19:35.512Z,32.33
2023-03-22T08:20:37.302Z,31.33
2023-03-22T08:21:39.224Z,36.31
2023-03-22T08:22:41.191Z,37.95
2023-03-22T08:23:42.975Z,33.60
2023-03-22T08:24:44.938Z,32.49
2023-03-22T08:25:46.726Z,33.69
2023-03-22T08:26:48.732Z,31.88
2023-03-22T08:27:50.538Z,32.53
2023-03-22T08:28:52.361Z,31.73
2023-03-22T08:29:54.220Z,28.77
2023-03-22T08:30:56.055Z,30.06
2023-03-22T08:31:57.979Z,38.20
2023-03-22T08:32:59.849Z,32.37
2023-03-22T08:34:01.652Z,32.00
2023-03-22T08:35:03.504Z,33.43
2023-03-22T08:36:05.408Z,30.08
2023-03-22T08:37:07.211Z,36.17
2023-03-22T08:38:09.042Z,32.56
2023-03-22T08:39:10.880Z,36.47
2023-03-22T08:40:12.868Z,27.49
2023-03-22T08:41:14.708Z,50.16
2023-03-22T08:42:16.531Z,55.48
2023-03-22T08:43:18.360Z,40.25
2023-03-22T08:44:20.167Z,32.33
2023-03-22T08:45:21.988Z,31.43
2023-03-22T08:46:23.799Z,29.66
2023-03-22T08:47:25.681Z,29.06
2023-03-22T08:48:27.508Z,25.47
2023-03-22T08:49:29.366Z,21.98
2023-03-22T08:50:31.196Z,21.74
2023-03-22T08:51:33.002Z,24.19
2023-03-22T08:52:34.805Z,20.54
2023-03-22T08:53:36.595Z,25.39
2023-03-22T08:54:38.411Z,24.50
2023-03-22T08:55:40.455Z,24.27
2023-03-22T08:56:42.445Z,24.81
2023-03-22T08:57:44.249Z,23.23
2023-03-22T08:58:46.058Z,24.67
2023-03-22T08:59:47.867Z,27.19
2023-03-22T09:00:50.130Z,32.49
2023-03-22T09:01:52.114Z,24.63
2023-03-22T09:02:53.926Z,22.67
2023-03-22T09:03:55.724Z,19.86
2023-03-22T09:04:57.548Z,20.63
2023-03-22T09:05:59.401Z,22.67
2023-03-22T09:07:01.349Z,22.58
2023-03-22T09:08:06.546Z,21.39
2023-03-22T09:09:06.789Z,22.86
2023-03-22T09:10:08.708Z,45.00
2023-03-22T09:11:10.564Z,31.81
2023-03-22T09:12:12.396Z,23.85
2023-03-22T09:13:14.192Z,26.44
2023-03-22T09:14:15.996Z,26.47
2023-03-22T09:15:17.832Z,27.92
2023-03-22T09:16:19.757Z,26.53
2023-03-22T09:17:22.566Z,27.95
2023-03-22T09:18:24.453Z,25.31
2023-03-22T09:19:26.249Z,25.69
2023-03-22T09:20:28.218Z,26.55
2023-03-22T09:21:30.066Z,23.09
2023-03-22T09:22:31.885Z,24.31
2023-03-22T09:23:33.693Z,24.92
2023-03-22T09:24:35.499Z,24.21
2023-03-22T09:25:37.296Z,26.05
2023-03-22T09:26:39.189Z,24.72
2023-03-22T09:27:41.010Z,24.92
2023-03-22T09:28:42.876Z,26.22
2023-03-22T09:29:44.617Z,20.61
2023-03-22T09:30:46.485Z,18.10
2023-03-22T09:31:48.394Z,23.14
2023-03-22T09:32:50.220Z,22.53
2023-03-22T09:33:51.984Z,22.36
2023-03-22T09:34:53.802Z,24.65
2023-03-22T09:35:55.639Z,33.30
2023-03-22T09:36:58.519Z,29.39
2023-03-22T09:38:00.405Z,20.51
2023-03-22T09:39:02.203Z,25.54
2023-03-22T09:40:04.002Z,19.29
2023-03-22T09:41:05.806Z,17.70
2023-03-22T09:42:07.626Z,21.54
2023-03-22T09:43:09.528Z,20.25
2023-03-22T09:44:11.326Z,20.17
2023-03-22T09:45:13.069Z,17.93
2023-03-22T09:46:15.528Z,18.74
2023-03-22T09:47:17.463Z,19.21
2023-03-22T09:48:19.286Z,21.58
2023-03-22T09:49:21.159Z,22.17
2023-03-22T09:50:22.949Z,19.31
2023-03-22T09:51:24.755Z,19.19
2023-03-22T09:52:26.630Z,18.61
2023-03-22T09:53:28.410Z,18.56
2023-03-22T09:54:30.203Z,16.21
2023-03-22T09:55:32.195Z,23.90
2023-03-22T09:56:35.113Z,21.07
2023-03-22T09:57:37.201Z,20.86
2023-03-22T09:58:39.057Z,16.37
2023-03-22T09:59:40.842Z,19.47
2023-03-22T10:00:42.803Z,18.76
2023-03-22T10:01:44.852Z,18.36
2023-03-22T10:02:46.885Z,15.51
2023-03-22T10:03:48.706Z,18.21
2023-03-22T10:04:50.586Z,16.14
2023-03-22T10:05:52.393Z,14.98
2023-03-22T10:06:54.206Z,20.76
2023-03-22T10:07:56.041Z,17.48
2023-03-22T10:08:57.849Z,18.49
2023-03-22T10:09:59.659Z,15.49
2023-03-22T10:11:01.511Z,22.45
2023-03-22T10:12:03.162Z,22.08
2023-03-22T10:13:04.988Z,17.86
2023-03-22T10:14:06.784Z,16.58
2023-03-22T10:15:08.646Z,13.07
2023-03-22T10:16:10.619Z,19.34
2023-03-22T10:17:12.494Z,15.48
2023-03-22T10:18:14.318Z,24.91
2023-03-22T10:19:16.121Z,18.30
2023-03-22T10:20:17.927Z,17.42
2023-03-22T10:21:19.764Z,16.61
2023-03-22T10:22:21.563Z,16.74
2023-03-22T10:23:23.476Z,13.41
2023-03-22T10:24:25.383Z,14.13
2023-03-22T10:25:27.307Z,18.28
2023-03-22T10:26:29.152Z,19.44
2023-03-22T10:27:30.919Z,13.30
2023-03-22T10:28:32.788Z,14.70
2023-03-22T10:29:34.606Z,12.78
2023-03-22T10:30:36.419Z,10.66
2023-03-22T10:31:38.266Z,15.58
2023-03-22T10:32:54.718Z,15.70
2023-03-22T10:33:44.550Z,12.19
2023-03-22T10:34:46.431Z,12.37
2023-03-22T10:35:48.311Z,15.81
2023-03-22T10:36:50.114Z,14.08
2023-03-22T10:37:51.953Z,18.14
2023-03-22T10:38:53.808Z,18.11
2023-03-22T10:39:55.615Z,12.82
2023-03-22T10:40:57.429Z,13.51
2023-03-22T10:41:59.227Z,15.54
2023-03-22T10:43:01.059Z,14.45
2023-03-22T10:44:02.899Z,12.67
2023-03-22T10:45:04.711Z,15.54
2023-03-22T10:46:06.793Z,16.59
2023-03-22T10:47:08.728Z,12.97
2023-03-22T10:48:10.677Z,14.91
2023-03-22T10:49:12.442Z,12.10
2023-03-22T10:50:14.552Z,17.32
2023-03-22T10:51:16.645Z,12.99
2023-03-22T10:52:18.450Z,13.81
2023-03-22T10:53:20.246Z,13.92
2023-03-22T10:54:22.105Z,15.39
2023-03-22T10:55:23.902Z,13.86
2023-03-22T10:56:25.761Z,12.80
2023-03-22T10:57:27.558Z,13.60
2023-03-22T10:58:29.370Z,13.41
2023-03-22T10:59:31.204Z,15.72
2023-03-22T11:00:33.057Z,19.33
2023-03-22T11:01:34.900Z,14.60
2023-03-22T11:02:36.834Z,14.73
2023-03-22T11:03:38.801Z,13.57
2023-03-22T11:04:40.595Z,12.62
2023-03-22T11:05:42.530Z,12.61
2023-03-22T11:06:44.400Z,11.43
2023-03-22T11:07:46.190Z,13.56
2023-03-22T11:08:47.980Z,14.34
2023-03-22T11:09:49.801Z,14.95
2023-03-22T11:10:51.980Z,17.92
2023-03-22T11:11:53.823Z,15.46
2023-03-22T11:12:55.615Z,13.07
2023-03-22T11:13:57.411Z,13.26
2023-03-22T11:14:59.233Z,14.03
2023-03-22T11:16:01.068Z,15.39
2023-03-22T11:17:02.816Z,14.95
2023-03-22T11:18:04.616Z,12.65
2023-03-22T11:19:06.411Z,12.78
2023-03-22T11:20:08.257Z,12.09
2023-03-22T11:21:10.009Z,14.57
2023-03-22T11:22:11.809Z,16.58
2023-03-22T11:23:13.606Z,12.20
2023-03-22T11:24:15.401Z,15.43
2023-03-22T11:25:17.213Z,12.43
2023-03-22T11:26:19.044Z,15.64
2023-03-22T11:27:20.865Z,15.71
2023-03-22T11:28:22.651Z,11.87
2023-03-22T11:29:24.530Z,13.51
2023-03-22T11:30:26.781Z,12.25
2023-03-22T11:31:28.598Z,13.28
2023-03-22T11:32:30.467Z,12.89
2023-03-22T11:33:32.284Z,14.31
2023-03-22T11:34:34.072Z,14.57
2023-03-22T11:35:35.918Z,14.75
2023-03-22T11:36:37.684Z,17.08
2023-03-22T11:37:39.489Z,16.26
2023-03-22T11:38:41.275Z,13.32
2023-03-22T11:39:43.079Z,12.30
2023-03-22T11:40:44.903Z,13.46
2023-03-22T11:41:46.687Z,13.39
2023-03-22T11:42:48.564Z,23.30
2023-03-22T11:43:51.422Z,12.07
2023-03-22T11:44:53.761Z,11.81
2023-03-22T11:45:55.614Z,13.51
2023-03-22T11:46:57.397Z,13.90
2023-03-22T11:47:59.263Z,14.95
2023-03-22T11:49:01.510Z,14.98
2023-03-22T11:50:03.489Z,13.36
2023-03-22T11:51:05.301Z,14.45
2023-03-22T11:52:07.104Z,13.79
2023-03-22T11:53:08.916Z,14.80
2023-03-22T11:54:10.682Z,13.98
2023-03-22T11:55:12.496Z,16.19
2023-03-22T11:56:14.332Z,14.21
2023-03-22T11:57:16.118Z,10.53
2023-03-22T11:58:17.912Z,9.97
2023-03-22T11:59:19.704Z,14.24
2023-03-22T12:00:21.529Z,14.96
2023-03-22T12:01:23.324Z,12.07
2023-03-22T12:02:25.230Z,17.07
2023-03-22T12:03:27.185Z,16.23
2023-03-22T12:04:29.001Z,16.51
2023-03-22T12:05:30.793Z,13.14
2023-03-22T12:06:32.857Z,14.28
2023-03-22T12:07:34.627Z,14.24
2023-03-22T12:08:36.429Z,15.80
2023-03-22T12:09:38.218Z,11.75
2023-03-22T12:10:40.031Z,13.45
2023-03-22T12:11:41.838Z,14.15
2023-03-22T12:12:43.627Z,15.87
2023-03-22T12:13:45.474Z,13.81
2023-03-22T12:14:47.382Z,14.73
2023-03-22T12:15:49.196Z,14.91
2023-03-22T12:16:51.127Z,12.91
2023-03-22T12:17:53.030Z,14.23
2023-03-22T12:18:54.903Z,13.93
2023-03-22T12:19:56.690Z,15.96
2023-03-22T12:20:58.795Z,13.91
2023-03-22T12:22:00.636Z,15.49
2023-03-22T12:23:02.439Z,14.01
2023-03-22T12:24:04.231Z,13.74
2023-03-22T12:25:06.018Z,12.66
2023-03-22T12:26:08.517Z,13.38
2023-03-22T12:27:10.350Z,12.78
2023-03-22T12:28:12.152Z,14.28
2023-03-22T12:29:13.936Z,14.39
2023-03-22T12:30:15.728Z,14.17
2023-03-22T12:31:17.601Z,11.19
2023-03-22T12:32:19.525Z,11.51
2023-03-22T12:33:21.362Z,14.93
2023-03-22T12:34:23.141Z,11.91
2023-03-22T12:35:24.938Z,15.69
2023-03-22T12:36:26.766Z,13.54
2023-03-22T12:37:30.096Z,12.27
2023-03-22T12:38:32.180Z,12.58
2023-03-22T12:39:34.300Z,10.23
2023-03-22T12:40:36.091Z,10.65
2023-03-22T12:41:37.893Z,10.04
2023-03-22T12:42:47.922Z,9.67
2023-03-22T12:43:43.321Z,10.77
2023-03-22T12:44:55.515Z,14.09
2023-03-22T12:45:48.724Z,12.18
2023-03-22T12:46:50.638Z,10.49
2023-03-22T12:47:52.695Z,11.95
2023-03-22T12:48:54.762Z,9.81
2023-03-22T12:49:56.534Z,11.68
2023-03-22T12:50:58.436Z,14.21
2023-03-22T12:52:00.226Z,11.46
2023-03-22T12:53:02.044Z,9.62
2023-03-22T12:54:03.721Z,12.38
2023-03-22T12:55:05.517Z,11.54
2023-03-22T12:56:07.830Z,12.29
2023-03-22T12:57:09.611Z,10.13
2023-03-22T12:58:11.433Z,14.46
2023-03-22T12:59:13.239Z,14.07
2023-03-22T13:00:15.149Z,9.29
2023-03-22T13:01:17.146Z,10.72
2023-03-22T13:02:18.958Z,10.63
2023-03-22T13:03:20.912Z,10.83
2023-03-22T13:04:22.808Z,10.14
2023-03-22T13:05:24.513Z,11.75
2023-03-22T13:06:26.459Z,13.03
2023-03-22T13:07:28.268Z,13.21
2023-03-22T13:08:32.124Z,21.69
2023-03-22T13:09:33.693Z,17.99
2023-03-22T13:10:35.517Z,20.71
2023-03-22T13:11:37.216Z,18.13
2023-03-22T13:12:39.011Z,15.61
2023-03-22T13:13:40.860Z,11.49
2023-03-22T13:14:42.659Z,11.48
2023-03-22T13:15:44.487Z,14.89
2023-03-22T13:16:46.399Z,12.38